AirBox status report


DeploymentNumber of DevicesDetailAvg. TemperatureAvg. HumidityAvg. PM2.5Version
1 Edimax AirBox (Taipei, 2016) [16.13% (25/155)] [HTML] [JSON] [Dataset A]22.29℃ 91.24% 11.12 μg/m3 2019-01-18T19:40:48Z
2 Edimax AirBox (New Taipei, 2016) [22.48% (67/298)] [HTML] [JSON] [Dataset B]20.87℃ 88.72% 17.73 μg/m3 2019-01-18T19:40:49Z
3 Edimax AirBox (Taoyuan, 2017) [26.81% (63/235)] [HTML] [JSON] [Dataset A]20.62℃ 83.83% 33.32 μg/m3 2019-01-18T19:40:49Z
4 Edimax AirBox (Taichung, 2016) [60.34% (140/232)] [HTML] [JSON] [Dataset B]21.5℃ 91.88% 50.14 μg/m3 2019-01-18T19:40:49Z
5 Edimax AirBox (Tainan, 2016) [42.52% (91/214)] [HTML] [JSON] [Dataset B]21.55℃ 92.75% 53.87 μg/m3 2019-01-18T19:40:49Z
6 Edimax AirBox (Kaohsiung, 2016) [51.65% (125/242)] [HTML] [JSON] [Dataset B]24.1℃ 91.58% 46.32 μg/m3 2019-01-18T19:40:49Z
7 Edimax AirBox (Korea) 100% (864/864) [HTML] [JSON] [Dataset Z]6.35℃ 58.07% 51.78 μg/m3 2019-01-18T19:40:49Z
8 Edimax AirBox (LASS) [6.76% (5/74)] [HTML] [JSON] [Dataset A]25.42℃ 69.8% 35.2 μg/m3 2019-01-18T19:40:50Z
9 Edimax AirBox (TaichungZero) [51.35% (76/148)] [HTML] [JSON] [Dataset A]21.33℃ 91.92% 50.26 μg/m3 2019-01-18T19:40:50Z
10 Edimax AirBox (TaoyuanFirst) [55.56% (15/27)] [HTML] [JSON] [Dataset A]19.1℃ 88.27% 33.13 μg/m3 2019-01-18T19:40:50Z
11 Edimax AirBox (other) 100% (849/849) [HTML] [JSON] [Dataset A]19.12℃ 98% 56 μg/m3 2019-01-18T19:40:50Z
12 LASS AirBox (Hsinchu, 2017) [40% (20/50)] [HTML] [JSON] [Dataset A]20.6℃ 88.25% 41.3 μg/m3 2019-01-18T19:40:49Z
13 LASS AirBox (Yunlin, 2017) [33.16% (64/193)] [HTML] [JSON] [Dataset A]21.56℃ 92.25% 59.45 μg/m3 2019-01-18T19:40:49Z
14 LASS AirBox (Chiayi, 2017) [43.14% (22/51)] [HTML] [JSON] [Dataset A]22.03℃ 88.86% 65.91 μg/m3 2019-01-18T19:40:49Z
15 LASS AirBox (Chiayi County, 2017) [26.11% (47/180)] [HTML] [JSON] [Dataset A]20.94℃ 89.81% 55.85 μg/m3 2019-01-18T19:40:49Z
16 LASS AirBox (Kinmen, 2017) [20.83% (5/24)] [HTML] [JSON] [Dataset A]19.27℃ 88.6% 44.6 μg/m3 2019-01-18T19:40:49Z
17 LASS AirBox (Hsinchu County, 2018) [54.07% (73/135)] [HTML] [JSON] [Dataset A]18.95℃ 76.85% 34.77 μg/m3 2019-01-18T19:40:49Z
18 LASS AirBox (Yilan, 2018) [41.12% (44/107)] [HTML] [JSON] [Dataset A]19.53℃ 70.09% 20.18 μg/m3 2019-01-18T19:40:49Z
19 LASS AirBox (Hualien, 2018) [23.02% (29/126)] [HTML] [JSON] [Dataset A]21.61℃ 70% 18.66 μg/m3 2019-01-18T19:40:49Z
20 LASS AirBox (Pingtung, 2018) [39.13% (90/230)] [HTML] [JSON] [Dataset A]23.8℃ 73.67% 49.24 μg/m3 2019-01-18T19:40:49Z
21 LASS AirBox (Penghu, 2018) [33.33% (17/51)] [HTML] [JSON] [Dataset A]20.34℃ 89.29% 47.35 μg/m3 2019-01-18T19:40:49Z
22 LASS AirBox (Keelung, 2018) [28.57% (16/56)] [HTML] [JSON] [Dataset A]20.6℃ 67% 18 μg/m3 2019-01-18T19:40:49Z
23 LASS AirBox (Taitung, 2018) [39.83% (47/118)] [HTML] [JSON] [Dataset A]22.56℃ 64.21% 16.77 μg/m3 2019-01-18T19:40:49Z
24 LASS AirBox (Miaoli, 2018) [64.24% (97/151)] [HTML] [JSON] [Dataset A]18.37℃ 82.38% 54.7 μg/m3 2019-01-18T19:40:49Z
25 LASS AirBox (Matsu, 2018) 25% (2/8) [HTML] [JSON] [Dataset A]14.87℃ 83.5% 51.5 μg/m3 2019-01-18T19:40:49Z
26 LASS AirBox (Kaohsiung, 2018) 52.68% (177/336) [HTML] [JSON] [Dataset A]23.33℃ 69.85% 56.88 μg/m3 2019-01-18T19:40:49Z
27 LASS AirBox (NewTaipei, 2018) 39.63% (128/323) [HTML] [JSON] [Dataset A]19.62℃ 64.53% 25.71 μg/m3 2019-01-18T19:40:49Z
28 LASS (LASS FT) 100% (85/85) [HTML] [JSON] [Dataset C]18.45℃ 84.57% 43.49 μg/m3 2019-01-18T19:40:50Z
29 LASS (LASS4U) 100% (52/52) [HTML] [JSON] [Dataset D]1.03℃ 66.81% 31.67 μg/m3 2019-01-18T19:40:50Z
30 MAPS (WiFi) [3.45% (3/87)] [HTML] [JSON] [Dataset E]0℃ 0% 44 μg/m3 2019-01-18T19:40:50Z
31 MAPS (RESCUE_TW) [15.63% (5/32)] [HTML] [JSON] [Dataset K]18.62℃ 54.18% 38.8 μg/m3 2019-01-18T19:40:50Z
32 MAPS (RESCUE_TWKH) 25% (5/20) [HTML] [JSON] [Dataset K]24.14℃ 45.36% 53 μg/m3 2019-01-18T19:40:50Z
33 MAPS (other) 100% (5/5) [HTML] [JSON] [Dataset E]24.5℃ 45.3% 47 μg/m3 2019-01-18T19:40:50Z
34 PiM25 N/A (0/0) [HTML] [JSON] [Dataset N]0℃ 0% 0 μg/m3 2019-01-18T19:40:50Z
35 ASLUNG 100% (1/1) [HTML] [JSON] [Dataset F]21.1℃ 68% 55 μg/m3 2019-01-18T19:40:50Z
36 *AirQ 100% (168/168) [HTML] [JSON] [Dataset J]0℃ 0% 43.58 μg/m3 2019-01-18T19:40:50Z
37 *AirU 100% (742/742) [HTML] [JSON] [Dataset L]0℃ 0% 7.74 μg/m3 2019-01-18T19:40:50Z
38 ITRI_PM25 100% (10/10) [HTML] [JSON] [Dataset M]0℃ 0% 23.6 μg/m3 2019-01-18T19:40:50Z
39 *Asus AirBox 100% (24/24) [HTML] [JSON] [Dataset G]18.71℃ 76.23% 96.88 μg/m3 2019-01-18T19:40:50Z
40 *gov Indie N/A (0/0) [HTML] [JSON] [Dataset H]0℃ 0% 0 μg/m3 2019-01-18T19:40:50Z
41 *ProbeCube 100% (3/3) [HTML] [JSON] [Dataset I]21.87℃ 50.17% 0 μg/m3 2019-01-18T19:40:50Z
42 Total 64.14% (4301/6706)

Resource:

Note: